Sanford, Colorado
Current Conditions -  °F | °C
As of 7:52 PM on Saturday 20 Dec 2014 (Local Time) from KALS Reporting Station
Clear Clear  
Wind Chill: 12°   Ceiling: Unl
Heat Index: 19°   Visibility: 10mi
Dew Point: 15°   Wind: 5mph
Humidity: 85%   Direction: 100°E
Pressure: 30.03"   Gusts: NA
Location:  37.26°N, 105.9°W
Report Text: KALS 210252Z AUTO 10004KT 10SM CLR M07/M09 A3003 RMK AO2 SLP229 T10721094 58002
Loading
Personal Weather Stations






























Interactive Weather Map New forecast layout! Learn more

10-Day Weather Forecast

Advertisements
Track Severe Weather on mobile